Time;durP1;ratioP1;P1;durP2;ratioP2;P2;SDS_P1;SDS_P2;PMS_P1;PMS_P2;Temp;Humidity;BMP_temperature;BMP_pressure;BME280_temperature;BME280_humidity;BME280_pressure;Samples;Min_cycle;Max_cycle;Signal;HPM_P1;HPM_P2
2022/07/11 00:02:08;;;;;;;1.70;1.00;;;23.90;54.10;;;;;;4991927;28;20514;-66
2022/07/11 00:04:35;;;;;;;1.70;1.00;;;23.90;54.00;;;;;;4991389;28;20430;-66
2022/07/11 00:07:02;;;;;;;1.48;1.00;;;23.90;54.10;;;;;;4991833;28;20473;-66
2022/07/11 00:09:29;;;;;;;1.58;1.02;;;23.90;54.20;;;;;;4990586;28;20430;-65
2022/07/11 00:11:56;;;;;;;1.73;1.20;;;23.90;54.20;;;;;;4991780;28;20399;-65
2022/07/11 00:14:22;;;;;;;1.90;1.10;;;23.80;54.10;;;;;;4991029;28;20916;-65
2022/07/11 00:16:49;;;;;;;1.10;0.90;;;23.80;54.20;;;;;;4991760;28;20398;-65
2022/07/11 00:19:14;;;;;;;1.33;0.90;;;23.80;54.20;;;;;;4991677;28;20486;-65
2022/07/11 00:21:40;;;;;;;1.58;0.95;;;23.80;54.10;;;;;;4990483;28;20473;-66
2022/07/11 00:24:07;;;;;;;2.10;0.90;;;23.80;54.10;;;;;;4991482;28;20457;-65
2022/07/11 00:26:36;;;;;;;1.50;0.80;;;23.80;54.20;;;;;;4991214;28;20397;-67
2022/07/11 00:29:02;;;;;;;1.10;1.00;;;23.80;54.20;;;;;;4991388;28;20497;-66
2022/07/11 00:31:28;;;;;;;1.55;1.00;;;23.80;54.20;;;;;;4991152;28;20517;-65
2022/07/11 00:33:58;;;;;;;1.90;1.00;;;23.80;54.10;;;;;;4991595;28;20489;-66
2022/07/11 00:36:24;;;;;;;1.27;0.80;;;23.80;54.20;;;;;;4994297;28;20391;-66
2022/07/11 00:38:50;;;;;;;1.50;0.90;;;23.80;54.20;;;;;;4993731;28;20391;-65
2022/07/11 00:41:19;;;;;;;1.27;1.10;;;23.80;54.30;;;;;;4994946;28;20421;-67
2022/07/11 00:43:56;;;;;;;1.88;1.02;;;23.80;54.20;;;;;;4993671;28;20429;-66
2022/07/11 00:46:22;;;;;;;1.00;0.80;;;23.80;54.20;;;;;;4993099;28;20768;-65
2022/07/11 00:48:48;;;;;;;2.10;1.10;;;23.70;54.10;;;;;;4995005;28;20402;-65
2022/07/11 00:51:15;;;;;;;2.22;1.02;;;23.70;54.20;;;;;;4994824;28;20401;-65
2022/07/11 00:53:42;;;;;;;1.60;1.00;;;23.70;54.20;;;;;;4994867;28;20394;-65
2022/07/11 00:56:09;;;;;;;1.45;1.10;;;23.70;54.30;;;;;;4994806;28;20869;-65
2022/07/11 00:58:36;;;;;;;2.03;1.00;;;23.70;54.40;;;;;;4994330;28;20461;-65
2022/07/11 01:01:03;;;;;;;1.90;1.10;;;23.70;54.30;;;;;;4994631;28;20402;-66
2022/07/11 01:03:29;;;;;;;1.50;0.98;;;23.70;54.30;;;;;;4994546;28;20820;-65
2022/07/11 01:05:54;;;;;;;1.90;0.93;;;23.70;54.40;;;;;;4994645;28;20382;-65
2022/07/11 01:08:20;;;;;;;1.47;1.00;;;23.70;54.40;;;;;;4993164;28;20398;-65
2022/07/11 01:10:47;;;;;;;1.23;0.90;;;23.70;54.40;;;;;;4994385;28;20383;-66
2022/07/11 01:13:12;;;;;;;1.60;1.20;;;23.70;54.40;;;;;;4994432;28;20394;-66
2022/07/11 01:15:38;;;;;;;2.05;1.10;;;23.70;54.40;;;;;;4993033;28;20406;-65
2022/07/11 01:18:04;;;;;;;0.97;0.87;;;23.70;54.50;;;;;;4993130;28;20421;-65
2022/07/11 01:20:30;;;;;;;1.80;1.02;;;23.70;54.50;;;;;;4992586;28;20418;-65
2022/07/11 01:23:08;;;;;;;1.70;0.90;;;23.70;54.60;;;;;;4992994;28;20410;-66
2022/07/11 01:25:34;;;;;;;1.30;1.07;;;23.70;54.50;;;;;;4992962;28;20460;-66
2022/07/11 01:28:01;;;;;;;1.13;1.00;;;23.60;54.50;;;;;;4992967;28;20399;-65
2022/07/11 01:30:28;;;;;;;1.42;1.05;;;23.70;54.60;;;;;;4993737;28;20400;-67
2022/07/11 01:32:55;;;;;;;1.48;1.17;;;23.60;54.60;;;;;;4994149;28;20480;-65
2022/07/11 01:35:22;;;;;;;1.77;1.00;;;23.60;54.60;;;;;;4994121;28;20387;-65
2022/07/11 01:37:48;;;;;;;1.30;1.00;;;23.60;54.60;;;;;;4994003;28;20867;-65
2022/07/11 01:40:14;;;;;;;1.90;1.02;;;23.60;54.60;;;;;;4993954;28;20398;-66
2022/07/11 01:42:40;;;;;;;1.27;1.17;;;23.60;54.60;;;;;;4993664;28;20441;-66
2022/07/11 01:45:07;;;;;;;1.40;1.20;;;23.60;54.60;;;;;;4993753;28;20410;-67
2022/07/11 01:47:32;;;;;;;1.60;1.27;;;23.60;54.70;;;;;;4993161;28;20391;-66
2022/07/11 01:49:58;;;;;;;2.22;1.20;;;23.60;54.60;;;;;;4993724;28;20409;-66
2022/07/11 01:52:24;;;;;;;1.87;1.30;;;23.60;54.70;;;;;;4993208;28;20445;-65
2022/07/11 01:54:49;;;;;;;1.45;1.10;;;23.60;54.70;;;;;;4993670;28;20391;-69
2022/07/11 01:57:15;;;;;;;1.80;1.30;;;23.60;54.80;;;;;;4993591;28;20402;-69
2022/07/11 01:59:41;;;;;;;1.40;1.30;;;23.60;54.80;;;;;;4993666;28;20745;-67
2022/07/11 02:02:07;;;;;;;1.35;1.20;;;23.60;54.80;;;;;;4993546;28;20387;-65
2022/07/11 02:04:33;;;;;;;1.35;1.25;;;23.60;54.80;;;;;;4992988;28;20828;-65
2022/07/11 02:06:59;;;;;;;2.08;1.30;;;23.50;54.90;;;;;;4993425;28;20391;-65
2022/07/11 02:09:25;;;;;;;1.95;1.30;;;23.60;55.00;;;;;;4993379;28;20414;-65
2022/07/11 02:11:50;;;;;;;2.57;1.20;;;23.50;54.90;;;;;;4993408;28;20485;-65
2022/07/11 02:14:16;;;;;;;1.97;1.03;;;23.50;54.90;;;;;;4991808;28;20764;-65
2022/07/11 02:16:42;;;;;;;1.60;1.20;;;23.50;54.80;;;;;;4993067;28;20399;-65
2022/07/11 02:19:08;;;;;;;1.57;1.20;;;23.50;54.90;;;;;;4993191;28;20394;-65
2022/07/11 02:21:34;;;;;;;1.40;1.20;;;23.50;54.90;;;;;;4993228;28;20405;-64
2022/07/11 02:24:00;;;;;;;1.83;1.30;;;23.50;54.90;;;;;;4993025;28;20429;-66
2022/07/11 02:26:25;;;;;;;1.50;1.20;;;23.50;54.90;;;;;;4992667;28;20383;-65
2022/07/11 02:28:51;;;;;;;1.53;1.20;;;23.50;54.90;;;;;;4993085;28;20880;-65
2022/07/11 02:31:17;;;;;;;1.60;1.00;;;23.50;54.90;;;;;;4982989;28;20436;-65
2022/07/11 02:33:42;;;;;;;2.10;1.13;;;23.50;55.00;;;;;;4981241;28;20397;-68
2022/07/11 02:36:10;;;;;;;1.48;1.20;;;23.50;55.00;;;;;;4982459;28;20390;-66
2022/07/11 02:38:36;;;;;;;1.50;1.30;;;23.50;55.00;;;;;;4981878;28;20396;-65
2022/07/11 02:41:01;;;;;;;1.50;0.93;;;23.50;55.00;;;;;;4997540;28;20519;-69
2022/07/11 02:43:27;;;;;;;1.52;1.10;;;23.50;55.10;;;;;;4983494;28;20458;-70
2022/07/11 02:45:54;;;;;;;1.40;1.00;;;23.50;55.00;;;;;;4981757;28;20467;-65
2022/07/11 02:48:20;;;;;;;1.13;1.00;;;23.50;55.00;;;;;;4982328;28;20497;-70
2022/07/11 02:50:46;;;;;;;1.83;1.10;;;23.50;55.10;;;;;;4983191;28;20504;-65
2022/07/11 02:53:11;;;;;;;1.88;1.10;;;23.50;55.00;;;;;;4981665;28;20435;-65
2022/07/11 02:55:37;;;;;;;1.17;0.93;;;23.50;55.00;;;;;;4989486;28;20434;-65
2022/07/11 02:58:03;;;;;;;1.50;1.13;;;23.40;55.10;;;;;;4991244;28;20968;-65
2022/07/11 03:00:28;;;;;;;1.52;1.13;;;23.40;55.00;;;;;;4992153;28;20747;-65
2022/07/11 03:02:54;;;;;;;1.40;0.97;;;23.40;55.00;;;;;;4992476;28;20780;-65
2022/07/11 03:05:20;;;;;;;1.80;1.00;;;23.40;55.00;;;;;;5007485;28;20406;-65
2022/07/11 03:07:45;;;;;;;1.33;1.10;;;23.40;55.00;;;;;;4992346;28;20391;-65
2022/07/11 03:10:11;;;;;;;1.87;0.97;;;23.50;56.30;;;;;;4992321;28;20438;-66
2022/07/11 03:12:37;;;;;;;4.25;1.30;;;23.50;56.30;;;;;;4991953;28;20470;-65
2022/07/11 03:15:04;;;;;;;4.45;1.20;;;23.50;57.30;;;;;;4991102;28;20423;-65
2022/07/11 03:17:30;;;;;;;2.90;1.30;;;23.60;57.70;;;;;;4992208;28;20752;-65
2022/07/11 03:19:56;;;;;;;3.13;1.10;;;23.60;57.80;;;;;;4992233;28;20402;-64
2022/07/11 03:22:23;;;;;;;1.60;1.10;;;23.60;57.50;;;;;;4992014;28;20918;-64
2022/07/11 03:24:50;;;;;;;5.47;1.43;;;23.60;57.20;;;;;;4991592;28;20426;-64
2022/07/11 03:27:16;;;;;;;5.50;1.30;;;23.60;58.40;;;;;;4992518;28;20398;-64
2022/07/11 03:29:42;;;;;;;4.25;1.30;;;23.60;58.60;;;;;;4992251;28;20399;-64
2022/07/11 03:32:08;;;;;;;4.30;1.30;;;23.70;58.50;;;;;;4991973;28;20525;-65
2022/07/11 03:34:34;;;;;;;5.13;1.30;;;23.70;58.30;;;;;;4991462;28;20390;-63
2022/07/11 03:37:00;;;;;;;3.25;1.40;;;23.70;58.70;;;;;;4991616;28;20406;-64
2022/07/11 03:39:26;;;;;;;4.43;1.40;;;23.80;59.00;;;;;;4991056;28;20402;-64
2022/07/11 03:41:52;;;;;;;5.97;1.53;;;23.80;60.00;;;;;;4991628;28;20402;-65
2022/07/11 03:44:18;;;;;;;4.97;1.42;;;23.80;59.00;;;;;;4991810;28;20895;-65
2022/07/11 03:46:44;;;;;;;7.07;1.60;;;23.80;59.20;;;;;;4991389;28;20417;-64
2022/07/11 03:49:10;;;;;;;5.03;1.40;;;23.90;58.80;;;;;;4991835;28;20402;-65
2022/07/11 03:51:35;;;;;;;5.43;1.70;;;23.80;58.70;;;;;;4990570;28;20430;-65
2022/07/11 03:54:01;;;;;;;5.63;1.63;;;23.80;58.70;;;;;;5006716;28;20411;-64
2022/07/11 03:56:27;;;;;;;8.75;1.60;;;23.80;58.50;;;;;;4986166;28;20411;-64
2022/07/11 03:58:53;;;;;;;10.20;1.42;;;23.80;58.40;;;;;;4971491;28;20397;-64
2022/07/11 04:01:22;;;;;;;8.30;1.60;;;23.80;58.10;;;;;;4970949;28;20905;-65
2022/07/11 04:03:47;;;;;;;10.68;1.60;;;23.70;57.80;;;;;;4971067;28;20755;-65
2022/07/11 04:06:14;;;;;;;9.18;1.70;;;23.70;57.20;;;;;;4975460;28;20449;-64
2022/07/11 04:08:41;;;;;;;8.88;1.27;;;23.60;56.50;;;;;;4991143;28;20394;-65
2022/07/11 04:11:06;;;;;;;5.20;1.30;;;23.60;56.30;;;;;;4994779;28;20386;-65
2022/07/11 04:13:32;;;;;;;3.45;1.40;;;23.60;55.80;;;;;;4994413;28;20801;-65
2022/07/11 04:15:58;;;;;;;5.10;1.30;;;23.60;55.30;;;;;;4995304;28;20390;-64
2022/07/11 04:18:23;;;;;;;7.60;1.75;;;23.50;55.00;;;;;;4994179;28;20410;-66
2022/07/11 04:20:49;;;;;;;5.20;1.23;;;23.50;55.00;;;;;;4995043;28;20395;-65
2022/07/11 04:23:15;;;;;;;5.95;1.50;;;23.50;55.40;;;;;;4995350;28;20512;-64
2022/07/11 04:25:41;;;;;;;3.20;1.40;;;23.40;54.80;;;;;;4995355;28;20398;-64
2022/07/11 04:28:07;;;;;;;3.25;1.27;;;23.40;55.00;;;;;;4995337;28;20409;-65
2022/07/11 04:30:33;;;;;;;5.23;1.40;;;23.40;55.10;;;;;;4994847;28;20394;-65
2022/07/11 04:32:59;;;;;;;3.40;1.42;;;23.40;55.10;;;;;;4995314;28;20386;-64
2022/07/11 04:35:27;;;;;;;4.68;1.35;;;23.40;55.20;;;;;;4995251;28;20497;-65
2022/07/11 04:37:53;;;;;;;3.83;1.40;;;23.40;55.30;;;;;;4995151;28;20740;-64
2022/07/11 04:40:20;;;;;;;3.60;1.45;;;23.40;55.30;;;;;;4995034;28;20416;-65
2022/07/11 04:42:46;;;;;;;3.13;1.60;;;23.40;55.30;;;;;;4994584;28;20489;-64
2022/07/11 04:45:12;;;;;;;2.97;1.48;;;23.40;55.40;;;;;;4993694;28;20521;-65
2022/07/11 04:47:38;;;;;;;2.85;1.25;;;23.40;55.40;;;;;;4993541;28;20446;-65
2022/07/11 04:50:04;;;;;;;4.75;1.25;;;23.40;56.00;;;;;;4994889;28;20802;-65
2022/07/11 04:52:30;;;;;;;4.75;1.42;;;23.40;55.40;;;;;;4994664;28;20397;-64
2022/07/11 04:54:55;;;;;;;2.67;1.50;;;23.40;55.40;;;;;;4994630;28;20390;-64
2022/07/11 04:57:21;;;;;;;3.03;1.40;;;23.40;55.50;;;;;;4994784;28;20414;-65
2022/07/11 04:59:47;;;;;;;2.23;1.20;;;23.30;55.40;;;;;;4994806;28;20478;-64
2022/07/11 05:02:12;;;;;;;2.40;1.30;;;23.40;55.50;;;;;;4993424;28;20484;-64
2022/07/11 05:04:38;;;;;;;2.77;1.30;;;23.30;55.50;;;;;;4992885;28;20465;-64
2022/07/11 05:07:04;;;;;;;2.75;1.20;;;23.30;55.50;;;;;;4994600;28;20472;-66
2022/07/11 05:09:29;;;;;;;2.30;1.00;;;23.30;55.40;;;;;;4994606;28;20403;-64
2022/07/11 05:11:55;;;;;;;2.28;1.27;;;23.30;55.50;;;;;;4994554;28;20386;-64
2022/07/11 05:14:21;;;;;;;2.50;1.30;;;23.30;55.50;;;;;;4994558;28;20395;-64
2022/07/11 05:16:46;;;;;;;1.58;1.10;;;23.30;55.50;;;;;;4994035;28;20397;-64
2022/07/11 05:19:12;;;;;;;2.95;1.35;;;23.30;55.50;;;;;;4993141;28;20402;-64
2022/07/11 05:21:38;;;;;;;2.17;1.40;;;23.30;55.50;;;;;;4993156;28;20759;-64
2022/07/11 05:24:04;;;;;;;2.00;1.40;;;23.30;55.50;;;;;;4994260;28;20429;-64
2022/07/11 05:26:30;;;;;;;2.63;1.45;;;23.30;55.50;;;;;;4994197;28;20474;-64
2022/07/11 05:28:55;;;;;;;3.60;1.40;;;23.30;55.50;;;;;;4992776;28;20415;-64
2022/07/11 05:31:21;;;;;;;1.92;1.30;;;23.30;55.50;;;;;;4988759;28;21794;-65
2022/07/11 05:33:47;;;;;;;2.80;1.40;;;23.30;55.50;;;;;;4989184;28;20402;-65
2022/07/11 05:36:12;;;;;;;2.05;1.20;;;23.30;55.50;;;;;;4984617;28;20397;-65
2022/07/11 05:38:38;;;;;;;2.20;1.30;;;23.30;55.50;;;;;;4977355;28;20397;-64
2022/07/11 05:41:04;;;;;;;2.65;1.40;;;23.30;55.50;;;;;;4974595;28;20808;-64
2022/07/11 05:43:30;;;;;;;3.10;1.20;;;23.20;55.50;;;;;;4974438;28;20452;-64
2022/07/11 05:45:56;;;;;;;2.33;1.30;;;23.30;56.10;;;;;;4974335;28;20459;-64
2022/07/11 05:48:21;;;;;;;2.42;1.20;;;23.30;55.50;;;;;;4974173;28;20404;-65
2022/07/11 05:50:47;;;;;;;2.20;1.38;;;23.20;55.50;;;;;;4972706;28;20408;-64
2022/07/11 05:53:13;;;;;;;1.93;1.10;;;23.20;55.50;;;;;;4974357;28;20420;-64
2022/07/11 05:55:38;;;;;;;1.63;1.33;;;23.20;55.50;;;;;;4993568;28;20927;-64
2022/07/11 05:58:04;;;;;;;2.10;1.20;;;23.20;55.40;;;;;;4993669;28;20391;-64
2022/07/11 06:00:30;;;;;;;1.33;1.05;;;23.20;55.40;;;;;;4993399;28;20394;-64
2022/07/11 06:02:55;;;;;;;1.93;1.30;;;23.20;55.40;;;;;;4993330;28;20423;-64
2022/07/11 06:05:22;;;;;;;2.28;1.40;;;23.20;55.40;;;;;;4992268;28;20414;-65
2022/07/11 06:10:34;;;;;;;2.60;1.20;;;23.20;55.40;;;;;;4993304;28;20823;-64
2022/07/11 06:13:00;;;;;;;2.50;1.30;;;23.20;55.40;;;;;;4993223;28;20398;-65
2022/07/11 06:15:25;;;;;;;1.90;1.00;;;23.20;55.50;;;;;;4978638;28;20416;-65
2022/07/11 06:17:51;;;;;;;2.65;1.42;;;23.20;55.40;;;;;;4973867;28;20766;-64
2022/07/11 06:20:17;;;;;;;1.73;1.20;;;23.20;55.50;;;;;;4972591;28;20771;-64
2022/07/11 06:22:42;;;;;;;1.70;1.10;;;23.20;55.40;;;;;;4973324;28;20392;-65
2022/07/11 06:25:09;;;;;;;1.40;1.10;;;23.20;56.00;;;;;;4973781;28;20886;-65
2022/07/11 06:27:38;;;;;;;1.83;1.30;;;23.20;55.40;;;;;;4973736;28;20396;-64
2022/07/11 06:30:04;;;;;;;2.28;1.10;;;23.20;55.40;;;;;;4973759;28;20396;-64
2022/07/11 06:32:31;;;;;;;1.98;1.20;;;23.20;55.40;;;;;;4982462;28;20387;-64
2022/07/11 06:34:56;;;;;;;1.75;1.25;;;23.20;55.40;;;;;;4992773;28;20405;-64
2022/07/11 06:37:22;;;;;;;2.07;1.30;;;23.20;55.40;;;;;;4992928;28;20391;-65
2022/07/11 06:39:48;;;;;;;1.37;1.10;;;23.20;55.40;;;;;;4991509;28;20399;-64
2022/07/11 06:42:13;;;;;;;2.70;1.40;;;23.20;55.40;;;;;;4991539;28;20386;-65
2022/07/11 06:44:39;;;;;;;1.93;1.40;;;23.20;55.40;;;;;;4990798;28;20426;-64
2022/07/11 06:47:05;;;;;;;1.63;1.10;;;23.20;55.40;;;;;;4991300;28;20414;-64
2022/07/11 06:49:31;;;;;;;1.73;1.30;;;23.10;55.30;;;;;;4991467;28;20431;-65
2022/07/11 06:51:56;;;;;;;1.88;1.50;;;23.10;55.30;;;;;;4973065;28;20430;-65
2022/07/11 06:54:22;;;;;;;1.90;1.37;;;23.20;55.30;;;;;;4973275;28;20396;-65
2022/07/11 06:56:47;;;;;;;1.52;1.40;;;23.10;55.30;;;;;;4972810;28;20392;-65
2022/07/11 06:59:13;;;;;;;1.97;1.20;;;23.10;55.20;;;;;;4971896;28;20545;-65
2022/07/11 07:01:39;;;;;;;1.70;1.43;;;23.10;55.30;;;;;;4971889;28;20426;-64
2022/07/11 07:04:04;;;;;;;1.60;1.35;;;23.10;55.30;;;;;;4972615;28;20427;-65
2022/07/11 07:06:30;;;;;;;1.73;1.23;;;23.10;55.30;;;;;;4972710;28;20384;-65
2022/07/11 07:08:55;;;;;;;1.52;1.27;;;23.10;55.20;;;;;;4971311;28;20409;-65
2022/07/11 07:11:21;;;;;;;1.55;1.25;;;23.10;55.30;;;;;;4972957;28;20388;-65
2022/07/11 07:13:49;;;;;;;1.47;1.27;;;23.10;55.20;;;;;;4987699;28;20402;-65
2022/07/11 07:16:15;;;;;;;2.33;1.70;;;23.10;55.30;;;;;;4974641;28;20391;-65
2022/07/11 07:18:43;;;;;;;2.40;1.40;;;23.10;55.30;;;;;;4991854;28;20394;-65
2022/07/11 07:21:08;;;;;;;2.55;1.50;;;23.10;55.30;;;;;;4992230;28;20454;-65
2022/07/11 07:23:34;;;;;;;1.75;1.38;;;23.10;55.30;;;;;;4992209;28;20418;-65
2022/07/11 07:26:00;;;;;;;2.73;1.60;;;23.10;55.30;;;;;;4992442;28;20407;-67
2022/07/11 07:28:28;;;;;;;2.08;1.50;;;23.10;55.50;;;;;;4988399;28;20901;-65
2022/07/11 07:30:54;;;;;;;2.03;1.40;;;23.10;55.40;;;;;;4972213;28;20759;-65
2022/07/11 07:33:19;;;;;;;2.00;1.77;;;23.20;55.40;;;;;;4972692;28;20400;-65
2022/07/11 07:35:45;;;;;;;1.50;1.35;;;23.20;55.40;;;;;;4971475;28;20396;-65
2022/07/11 07:38:11;;;;;;;1.87;1.50;;;23.10;55.40;;;;;;4972625;28;20439;-65
2022/07/11 07:40:36;;;;;;;2.50;1.30;;;23.10;55.40;;;;;;4972530;28;20400;-65
2022/07/11 07:43:02;;;;;;;2.10;1.40;;;23.10;55.40;;;;;;4972332;28;20499;-65
2022/07/11 07:45:28;;;;;;;2.10;1.40;;;23.10;55.30;;;;;;4973381;28;20431;-65
2022/07/11 07:47:53;;;;;;;2.00;1.60;;;23.10;55.30;;;;;;4976732;28;20847;-65
2022/07/11 07:50:19;;;;;;;1.90;1.23;;;23.10;55.30;;;;;;4975017;28;20881;-65
2022/07/11 07:52:45;;;;;;;1.85;1.13;;;23.10;55.30;;;;;;4976177;28;20451;-65
2022/07/11 07:55:10;;;;;;;2.27;1.10;;;23.10;55.40;;;;;;4976529;28;20400;-65
2022/07/11 07:57:36;;;;;;;1.40;1.30;;;23.10;55.40;;;;;;4975247;28;20400;-65
2022/07/11 08:02:50;;;;;;;1.83;1.60;;;23.10;55.40;;;;;;4976176;28;20400;-65
2022/07/11 08:05:16;;;;;;;1.83;1.52;;;23.20;55.40;;;;;;4976350;28;20495;-65
2022/07/11 08:07:42;;;;;;;1.70;1.33;;;23.20;55.60;;;;;;4975067;28;20809;-66
2022/07/11 08:10:08;;;;;;;1.93;1.40;;;23.20;55.70;;;;;;4974763;28;20432;-65
2022/07/11 08:12:34;;;;;;;1.42;1.13;;;23.20;55.40;;;;;;4976207;28;20400;-65
2022/07/11 08:15:00;;;;;;;1.40;1.30;;;23.20;55.40;;;;;;4974470;28;20415;-65
2022/07/11 08:17:25;;;;;;;1.48;1.10;;;23.20;55.40;;;;;;4974874;28;20824;-65
2022/07/11 08:19:51;;;;;;;1.70;1.30;;;23.20;55.40;;;;;;4975937;28;20949;-65
2022/07/11 08:22:17;;;;;;;1.77;1.30;;;23.20;55.40;;;;;;4975904;28;20395;-65
2022/07/11 08:24:43;;;;;;;2.00;1.50;;;23.20;55.40;;;;;;4975622;28;20469;-66
2022/07/11 08:27:09;;;;;;;1.52;1.23;;;23.20;55.50;;;;;;4975877;28;20720;-65
2022/07/11 08:29:35;;;;;;;2.20;1.40;;;23.20;55.40;;;;;;4975608;28;20415;-65
2022/07/11 08:32:01;;;;;;;1.83;1.40;;;23.20;55.40;;;;;;4990360;28;20554;-65
2022/07/11 08:34:26;;;;;;;1.60;1.38;;;23.20;55.20;;;;;;5010118;28;20399;-66
2022/07/11 08:36:52;;;;;;;2.47;1.40;;;23.20;55.10;;;;;;5005763;28;20468;-65
2022/07/11 08:39:17;;;;;;;2.13;1.50;;;23.20;55.00;;;;;;4984911;28;20391;-65
2022/07/11 08:41:47;;;;;;;2.03;1.50;;;23.20;55.10;;;;;;4982122;28;20442;-65
2022/07/11 08:44:16;;;;;;;1.90;1.40;;;23.20;55.10;;;;;;4985380;28;20509;-65
2022/07/11 08:46:44;;;;;;;1.40;1.30;;;23.20;55.10;;;;;;4984644;28;20438;-65
2022/07/11 08:49:12;;;;;;;1.55;1.40;;;23.20;55.40;;;;;;4984283;28;20429;-65
2022/07/11 08:51:38;;;;;;;2.45;1.35;;;23.20;55.30;;;;;;4984643;28;20908;-65
2022/07/11 08:54:04;;;;;;;1.30;1.10;;;23.20;55.20;;;;;;4982253;28;20773;-65
2022/07/11 08:56:32;;;;;;;1.58;1.17;;;23.20;55.30;;;;;;4983097;28;20741;-65
2022/07/11 08:59:01;;;;;;;1.60;1.20;;;23.30;55.40;;;;;;4984246;28;20780;-65
2022/07/11 09:01:33;;;;;;;1.50;1.20;;;23.20;54.90;;;;;;4984051;28;20423;-65
2022/07/11 09:04:00;;;;;;;1.38;1.20;;;23.20;55.00;;;;;;4984609;28;20484;-66
2022/07/11 09:06:27;;;;;;;1.70;1.20;;;23.20;54.90;;;;;;4983606;28;21069;-65
2022/07/11 09:09:00;;;;;;;1.40;1.13;;;23.30;55.00;;;;;;4982230;28;20402;-66
2022/07/11 09:11:27;;;;;;;1.60;1.10;;;23.20;55.10;;;;;;4990327;28;20768;-65
2022/07/11 09:13:53;;;;;;;1.45;1.20;;;23.20;55.10;;;;;;4983995;28;20474;-65
2022/07/11 09:16:26;;;;;;;1.52;1.30;;;23.20;54.60;;;;;;4997520;28;20801;-65
2022/07/11 09:18:53;;;;;;;1.40;1.25;;;23.20;54.80;;;;;;4982317;28;20947;-65
2022/07/11 09:26:52;;;;;;;1.65;1.38;;;23.20;54.50;;;;;;4985619;28;20388;-65
2022/07/11 09:29:25;;;;;;;1.50;1.33;;;23.20;54.60;;;;;;4982222;28;20428;-65
2022/07/11 09:31:52;;;;;;;1.70;1.15;;;23.20;54.40;;;;;;4982695;28;20452;-65
2022/07/11 09:34:27;;;;;;;1.65;1.10;;;23.20;54.60;;;;;;4982869;28;20482;-65
2022/07/11 09:36:57;;;;;;;1.60;1.17;;;23.20;54.40;;;;;;4983544;28;20479;-66
2022/07/11 09:39:28;;;;;;;2.03;1.30;;;23.20;54.40;;;;;;4984845;28;20507;-66
2022/07/11 09:41:55;;;;;;;2.55;1.10;;;23.20;55.00;;;;;;4986147;28;20442;-65
2022/07/11 09:44:28;;;;;;;2.27;1.10;;;23.30;55.30;;;;;;4982446;28;20914;-65
2022/07/11 09:46:59;;;;;;;6.85;2.25;;;23.20;55.20;;;;;;4981359;28;20412;-65
2022/07/11 09:49:36;;;;;;;6.10;1.85;;;23.20;56.90;;;;;;4982256;28;20407;-66
2022/07/11 09:52:09;;;;;;;4.87;1.63;;;23.30;57.60;;;;;;4982453;28;20913;-65
2022/07/11 09:55:00;;;;;;;5.13;1.52;;;23.40;57.30;;;;;;4983235;28;20394;-65
2022/07/11 09:57:37;;;;;;;3.03;1.60;;;23.40;57.30;;;;;;4982568;28;20398;-65
2022/07/11 10:00:11;;;;;;;3.08;1.55;;;23.40;57.00;;;;;;4985896;28;20394;-67
2022/07/11 10:02:38;;;;;;;4.00;1.42;;;23.40;57.10;;;;;;4983450;28;20824;-65
2022/07/11 10:05:04;;;;;;;4.03;1.67;;;23.40;56.50;;;;;;4983526;28;20968;-65
2022/07/11 10:07:32;;;;;;;2.92;1.30;;;23.40;56.30;;;;;;4982783;28;20414;-66
2022/07/11 10:10:03;;;;;;;3.13;1.50;;;23.40;56.10;;;;;;4985531;28;20481;-65
2022/07/11 10:12:31;;;;;;;2.38;1.15;;;23.30;56.00;;;;;;4984774;28;20387;-66
2022/07/11 10:15:03;;;;;;;2.92;1.30;;;23.30;56.00;;;;;;4980182;28;20395;-65
2022/07/11 10:17:44;;;;;;;5.13;1.40;;;23.30;56.00;;;;;;4978548;28;20421;-65
2022/07/11 10:20:20;;;;;;;2.30;1.25;;;23.30;56.00;;;;;;4980988;28;20399;-65
2022/07/11 10:23:14;;;;;;;1.95;1.40;;;23.30;56.00;;;;;;4982210;28;20469;-66
2022/07/11 10:25:42;;;;;;;1.73;1.20;;;23.40;56.40;;;;;;4989362;28;20533;-65
2022/07/11 10:28:11;;;;;;;2.70;1.40;;;23.40;56.10;;;;;;4979833;28;20404;-65
2022/07/11 10:30:59;;;;;;;2.13;1.40;;;23.30;56.00;;;;;;4982017;28;20402;-65
2022/07/11 10:33:29;;;;;;;2.10;1.38;;;23.30;55.90;;;;;;4983691;28;20400;-65
2022/07/11 10:35:56;;;;;;;3.53;1.45;;;23.30;55.90;;;;;;4982416;28;20398;-69
2022/07/11 10:38:25;;;;;;;2.20;1.30;;;23.30;56.30;;;;;;4982953;28;20420;-65
2022/07/11 10:40:58;;;;;;;2.65;1.10;;;23.30;55.80;;;;;;4982272;28;20730;-65
2022/07/11 10:43:36;;;;;;;2.65;1.30;;;23.30;55.70;;;;;;4981388;28;20796;-65
2022/07/11 10:46:09;;;;;;;1.60;1.15;;;23.30;55.70;;;;;;4981990;28;20408;-65
2022/07/11 10:48:51;;;;;;;1.15;1.05;;;23.30;55.70;;;;;;4990105;28;20410;-65
2022/07/11 10:51:39;;;;;;;2.00;1.00;;;23.30;55.70;;;;;;4992422;28;20422;-65
2022/07/11 10:54:32;;;;;;;1.02;0.80;;;23.30;55.60;;;;;;4992785;28;20436;-65
2022/07/11 10:57:21;;;;;;;1.60;1.10;;;23.30;55.50;;;;;;4990610;28;20386;-65
2022/07/11 11:00:00;;;;;;;2.38;1.42;;;23.30;55.50;;;;;;4990953;28;20455;-65
2022/07/11 11:02:28;;;;;;;1.50;1.10;;;23.30;55.50;;;;;;4990820;28;20553;-65
2022/07/11 11:04:58;;;;;;;2.40;1.25;;;23.30;55.50;;;;;;4991821;28;20471;-65
2022/07/11 11:07:41;;;;;;;1.42;1.10;;;23.30;55.50;;;;;;4990981;28;20393;-65
2022/07/11 11:10:29;;;;;;;1.55;1.00;;;23.30;55.50;;;;;;4989994;28;20407;-71
2022/07/11 11:13:09;;;;;;;1.20;1.00;;;23.30;55.40;;;;;;5016202;28;20398;-64
2022/07/11 11:15:54;;;;;;;2.40;1.35;;;23.30;55.40;;;;;;4992294;28;20456;-65
2022/07/11 11:18:25;;;;;;;1.30;1.20;;;23.30;55.20;;;;;;4991877;28;20391;-70
2022/07/11 11:21:09;;;;;;;1.88;1.20;;;23.30;55.50;;;;;;4991284;28;20426;-71
2022/07/11 11:23:59;;;;;;;1.50;1.13;;;23.30;55.30;;;;;;4992161;28;20421;-65
2022/07/11 11:26:49;;;;;;;1.23;1.10;;;23.30;55.20;;;;;;4972587;28;20408;-65
2022/07/11 11:29:22;;;;;;;1.30;1.20;;;23.30;55.40;;;;;;4972242;28;20384;-65
2022/07/11 11:31:54;;;;;;;1.20;1.10;;;23.30;55.30;;;;;;4971066;28;20469;-66
2022/07/11 11:34:21;;;;;;;1.30;1.20;;;23.30;55.30;;;;;;4972476;28;20528;-65
2022/07/11 11:37:01;;;;;;;1.30;1.00;;;23.30;55.30;;;;;;4970847;28;20400;-65
2022/07/11 11:39:38;;;;;;;1.38;1.25;;;23.30;55.10;;;;;;4987150;28;20438;-65
2022/07/11 11:42:16;;;;;;;1.60;1.00;;;23.30;55.40;;;;;;4970983;28;20487;-65
2022/07/11 11:45:05;;;;;;;1.65;1.30;;;23.30;55.20;;;;;;4972137;28;20426;-66
2022/07/11 11:47:32;;;;;;;1.45;1.20;;;23.30;55.40;;;;;;4972493;28;20826;-65
2022/07/11 11:49:58;;;;;;;1.17;1.00;;;23.30;55.30;;;;;;4972089;28;20479;-66
2022/07/11 11:52:27;;;;;;;1.48;1.17;;;23.30;55.40;;;;;;4972210;28;20494;-65
2022/07/11 11:54:58;;;;;;;1.17;1.05;;;23.30;55.30;;;;;;4971155;28;20415;-65
2022/07/11 11:57:27;;;;;;;1.35;1.00;;;23.30;55.10;;;;;;4972280;28;20387;-70
2022/07/11 11:59:53;;;;;;;1.10;0.95;;;23.30;55.10;;;;;;4972186;28;20392;-66
2022/07/11 12:02:24;;;;;;;1.25;0.95;;;23.30;55.00;;;;;;4972294;28;20392;-67
2022/07/11 12:04:50;;;;;;;1.23;1.13;;;23.30;55.20;;;;;;4971915;28;20936;-64
2022/07/11 12:07:23;;;;;;;1.10;0.98;;;23.30;55.00;;;;;;4969994;28;20400;-65
2022/07/11 12:09:55;;;;;;;1.23;1.02;;;23.30;54.90;;;;;;4972531;28;20433;-65
2022/07/11 12:15:28;;;;;;;1.95;1.10;;;23.30;55.00;;;;;;4971931;28;20399;-71
2022/07/11 12:18:00;;;;;;;1.10;0.90;;;23.30;55.00;;;;;;4970753;28;20396;-67
2022/07/11 12:20:39;;;;;;;2.28;1.10;;;23.30;55.20;;;;;;4972148;28;20432;-65
2022/07/11 12:23:17;;;;;;;1.50;1.08;;;23.30;54.80;;;;;;4971922;28;20396;-66
2022/07/11 12:25:44;;;;;;;1.10;1.00;;;23.30;55.10;;;;;;4988128;28;20402;-65
2022/07/11 12:28:10;;;;;;;1.80;1.20;;;23.30;55.00;;;;;;4991285;28;20437;-65
2022/07/11 12:30:37;;;;;;;1.70;1.08;;;23.30;54.90;;;;;;4992279;28;20534;-65
2022/07/11 12:33:15;;;;;;;1.13;1.00;;;23.30;55.20;;;;;;4985167;28;20392;-66
2022/07/11 12:35:58;;;;;;;1.37;1.10;;;23.30;55.10;;;;;;4980702;28;20430;-65
2022/07/11 12:38:25;;;;;;;1.20;1.10;;;23.30;54.80;;;;;;4985020;28;20400;-66
2022/07/11 12:41:02;;;;;;;1.10;1.00;;;23.30;55.00;;;;;;4991637;28;20481;-69
2022/07/11 12:46:38;;;;;;;1.20;1.10;;;23.30;55.00;;;;;;4994826;28;20421;-65
2022/07/11 12:49:06;;;;;;;1.35;1.20;;;23.30;55.10;;;;;;5009389;28;20453;-66
2022/07/11 12:51:43;;;;;;;1.13;0.98;;;23.30;55.30;;;;;;4994875;28;20452;-65
2022/07/11 12:54:11;;;;;;;1.00;0.90;;;23.30;55.20;;;;;;4993284;28;20426;-65
2022/07/11 12:56:38;;;;;;;1.20;1.10;;;23.30;55.30;;;;;;5009513;28;20473;-65
2022/07/11 12:59:05;;;;;;;1.80;1.20;;;23.30;54.90;;;;;;4984786;28;20458;-64
2022/07/11 13:01:33;;;;;;;1.20;1.10;;;23.30;55.70;;;;;;4984027;28;20412;-64
2022/07/11 13:04:00;;;;;;;1.70;1.13;;;23.30;55.10;;;;;;4975307;28;20474;-64
2022/07/11 13:09:15;;;;;;;1.20;1.10;;;23.30;55.00;;;;;;4991509;28;20389;-65
2022/07/11 13:11:40;;;;;;;1.38;1.00;;;23.30;55.10;;;;;;4990387;28;20414;-64
2022/07/11 13:15:08;;;;;;;1.10;0.90;;;23.30;55.10;;;;;;4983588;28;20424;-65